sensor_id;sensor_type;location;lat;lon;timestamp;P1;durP1;ratioP1;P2;durP2;ratioP2
39776;SDS011;25453;48.162;14.510;2024-01-15T00:01:59;25.00;;;9.48;;
39776;SDS011;25453;48.162;14.510;2024-01-15T00:04:26;24.60;;;8.93;;
39776;SDS011;25453;48.162;14.510;2024-01-15T00:06:55;25.70;;;8.35;;
39776;SDS011;25453;48.162;14.510;2024-01-15T00:09:22;25.48;;;8.25;;
39776;SDS011;25453;48.162;14.510;2024-01-15T00:11:50;21.23;;;7.47;;
39776;SDS011;25453;48.162;14.510;2024-01-15T00:14:17;27.42;;;8.57;;
39776;SDS011;25453;48.162;14.510;2024-01-15T00:16:47;17.88;;;6.93;;
39776;SDS011;25453;48.162;14.510;2024-01-15T00:19:20;21.55;;;7.38;;
39776;SDS011;25453;48.162;14.510;2024-01-15T00:21:48;21.17;;;8.65;;
39776;SDS011;25453;48.162;14.510;2024-01-15T00:24:16;19.92;;;7.65;;
39776;SDS011;25453;48.162;14.510;2024-01-15T00:26:43;24.17;;;7.75;;
39776;SDS011;25453;48.162;14.510;2024-01-15T00:29:10;23.25;;;7.88;;
39776;SDS011;25453;48.162;14.510;2024-01-15T00:31:37;19.45;;;8.10;;
39776;SDS011;25453;48.162;14.510;2024-01-15T00:34:05;21.85;;;7.95;;
39776;SDS011;25453;48.162;14.510;2024-01-15T00:36:33;21.05;;;7.60;;
39776;SDS011;25453;48.162;14.510;2024-01-15T00:39:00;21.45;;;6.93;;
39776;SDS011;25453;48.162;14.510;2024-01-15T00:41:27;22.77;;;7.93;;
39776;SDS011;25453;48.162;14.510;2024-01-15T00:43:55;21.05;;;8.48;;
39776;SDS011;25453;48.162;14.510;2024-01-15T00:46:22;22.92;;;7.50;;
39776;SDS011;25453;48.162;14.510;2024-01-15T00:48:49;21.42;;;7.95;;
39776;SDS011;25453;48.162;14.510;2024-01-15T00:51:17;23.02;;;8.40;;
39776;SDS011;25453;48.162;14.510;2024-01-15T00:53:44;21.00;;;8.07;;
39776;SDS011;25453;48.162;14.510;2024-01-15T00:56:11;26.15;;;8.60;;
39776;SDS011;25453;48.162;14.510;2024-01-15T00:58:38;21.08;;;7.72;;
39776;SDS011;25453;48.162;14.510;2024-01-15T01:01:06;26.23;;;7.80;;
39776;SDS011;25453;48.162;14.510;2024-01-15T01:03:33;24.33;;;8.75;;
39776;SDS011;25453;48.162;14.510;2024-01-15T01:06:00;23.90;;;8.50;;
39776;SDS011;25453;48.162;14.510;2024-01-15T01:08:27;21.50;;;7.47;;
39776;SDS011;25453;48.162;14.510;2024-01-15T01:10:56;23.95;;;9.23;;
39776;SDS011;25453;48.162;14.510;2024-01-15T01:13:23;22.30;;;9.13;;
39776;SDS011;25453;48.162;14.510;2024-01-15T01:15:51;22.05;;;8.93;;
39776;SDS011;25453;48.162;14.510;2024-01-15T01:18:18;22.80;;;9.25;;
39776;SDS011;25453;48.162;14.510;2024-01-15T01:20:46;25.13;;;9.18;;
39776;SDS011;25453;48.162;14.510;2024-01-15T01:23:13;30.33;;;10.05;;
39776;SDS011;25453;48.162;14.510;2024-01-15T01:25:40;25.38;;;8.73;;
39776;SDS011;25453;48.162;14.510;2024-01-15T01:28:08;21.95;;;8.70;;
39776;SDS011;25453;48.162;14.510;2024-01-15T01:30:35;27.75;;;9.48;;
39776;SDS011;25453;48.162;14.510;2024-01-15T01:33:03;21.73;;;7.93;;
39776;SDS011;25453;48.162;14.510;2024-01-15T01:35:30;25.70;;;8.60;;
39776;SDS011;25453;48.162;14.510;2024-01-15T01:38:00;25.30;;;8.90;;
39776;SDS011;25453;48.162;14.510;2024-01-15T01:40:28;20.80;;;9.18;;
39776;SDS011;25453;48.162;14.510;2024-01-15T01:42:55;22.45;;;8.52;;
39776;SDS011;25453;48.162;14.510;2024-01-15T01:45:22;26.40;;;8.40;;
39776;SDS011;25453;48.162;14.510;2024-01-15T01:47:49;20.13;;;7.45;;
39776;SDS011;25453;48.162;14.510;2024-01-15T01:50:17;23.05;;;9.23;;
39776;SDS011;25453;48.162;14.510;2024-01-15T01:52:44;20.45;;;8.43;;
39776;SDS011;25453;48.162;14.510;2024-01-15T01:55:11;25.08;;;8.27;;
39776;SDS011;25453;48.162;14.510;2024-01-15T01:57:39;22.20;;;8.32;;
39776;SDS011;25453;48.162;14.510;2024-01-15T02:00:08;21.05;;;9.35;;
39776;SDS011;25453;48.162;14.510;2024-01-15T02:02:36;23.83;;;8.77;;
39776;SDS011;25453;48.162;14.510;2024-01-15T02:05:04;26.20;;;9.43;;
39776;SDS011;25453;48.162;14.510;2024-01-15T02:07:34;24.30;;;8.85;;
39776;SDS011;25453;48.162;14.510;2024-01-15T02:10:02;23.77;;;7.82;;
39776;SDS011;25453;48.162;14.510;2024-01-15T02:12:30;31.17;;;9.52;;
39776;SDS011;25453;48.162;14.510;2024-01-15T02:14:57;26.52;;;8.43;;
39776;SDS011;25453;48.162;14.510;2024-01-15T02:17:25;22.73;;;8.85;;
39776;SDS011;25453;48.162;14.510;2024-01-15T02:19:53;22.45;;;9.18;;
39776;SDS011;25453;48.162;14.510;2024-01-15T02:22:20;21.52;;;8.10;;
39776;SDS011;25453;48.162;14.510;2024-01-15T02:24:48;27.60;;;9.40;;
39776;SDS011;25453;48.162;14.510;2024-01-15T02:27:15;31.38;;;10.23;;
39776;SDS011;25453;48.162;14.510;2024-01-15T02:29:43;30.05;;;8.70;;
39776;SDS011;25453;48.162;14.510;2024-01-15T02:32:10;24.15;;;9.00;;
39776;SDS011;25453;48.162;14.510;2024-01-15T02:34:38;27.42;;;9.18;;
39776;SDS011;25453;48.162;14.510;2024-01-15T02:37:05;20.77;;;7.88;;
39776;SDS011;25453;48.162;14.510;2024-01-15T02:39:32;27.75;;;10.05;;
39776;SDS011;25453;48.162;14.510;2024-01-15T02:42:00;24.20;;;8.05;;
39776;SDS011;25453;48.162;14.510;2024-01-15T02:44:27;25.25;;;8.55;;
39776;SDS011;25453;48.162;14.510;2024-01-15T02:46:54;18.10;;;7.30;;
39776;SDS011;25453;48.162;14.510;2024-01-15T02:49:21;20.83;;;8.32;;
39776;SDS011;25453;48.162;14.510;2024-01-15T02:51:49;21.02;;;7.60;;
39776;SDS011;25453;48.162;14.510;2024-01-15T02:54:16;24.38;;;8.38;;
39776;SDS011;25453;48.162;14.510;2024-01-15T02:56:43;23.58;;;8.10;;
39776;SDS011;25453;48.162;14.510;2024-01-15T02:59:11;26.83;;;8.75;;
39776;SDS011;25453;48.162;14.510;2024-01-15T03:01:38;18.00;;;7.93;;
39776;SDS011;25453;48.162;14.510;2024-01-15T03:04:05;19.85;;;7.50;;
39776;SDS011;25453;48.162;14.510;2024-01-15T03:06:33;19.88;;;7.95;;
39776;SDS011;25453;48.162;14.510;2024-01-15T03:09:00;23.70;;;8.27;;
39776;SDS011;25453;48.162;14.510;2024-01-15T03:11:27;16.63;;;7.78;;
39776;SDS011;25453;48.162;14.510;2024-01-15T03:13:54;22.23;;;8.65;;
39776;SDS011;25453;48.162;14.510;2024-01-15T03:16:22;17.17;;;8.25;;
39776;SDS011;25453;48.162;14.510;2024-01-15T03:18:49;24.15;;;7.63;;
39776;SDS011;25453;48.162;14.510;2024-01-15T03:21:16;19.65;;;8.73;;
39776;SDS011;25453;48.162;14.510;2024-01-15T03:23:43;20.67;;;7.35;;
39776;SDS011;25453;48.162;14.510;2024-01-15T03:26:11;24.00;;;8.30;;
39776;SDS011;25453;48.162;14.510;2024-01-15T03:28:38;17.90;;;6.80;;
39776;SDS011;25453;48.162;14.510;2024-01-15T03:31:05;16.70;;;7.00;;
39776;SDS011;25453;48.162;14.510;2024-01-15T03:33:34;18.92;;;7.10;;
39776;SDS011;25453;48.162;14.510;2024-01-15T03:36:01;22.27;;;8.15;;
39776;SDS011;25453;48.162;14.510;2024-01-15T03:38:28;27.15;;;7.60;;
39776;SDS011;25453;48.162;14.510;2024-01-15T03:40:56;22.17;;;8.57;;
39776;SDS011;25453;48.162;14.510;2024-01-15T03:43:23;19.40;;;7.93;;
39776;SDS011;25453;48.162;14.510;2024-01-15T03:45:50;23.13;;;8.70;;
39776;SDS011;25453;48.162;14.510;2024-01-15T03:48:17;20.63;;;7.60;;
39776;SDS011;25453;48.162;14.510;2024-01-15T03:50:44;23.92;;;9.23;;
39776;SDS011;25453;48.162;14.510;2024-01-15T03:53:12;20.90;;;8.10;;
39776;SDS011;25453;48.162;14.510;2024-01-15T03:55:39;22.73;;;8.20;;
39776;SDS011;25453;48.162;14.510;2024-01-15T03:58:06;23.95;;;8.93;;
39776;SDS011;25453;48.162;14.510;2024-01-15T04:00:33;22.70;;;7.97;;
39776;SDS011;25453;48.162;14.510;2024-01-15T04:03:01;24.85;;;8.23;;
39776;SDS011;25453;48.162;14.510;2024-01-15T04:05:28;22.77;;;9.00;;
39776;SDS011;25453;48.162;14.510;2024-01-15T04:07:56;26.77;;;8.73;;
39776;SDS011;25453;48.162;14.510;2024-01-15T04:10:23;22.95;;;8.57;;
39776;SDS011;25453;48.162;14.510;2024-01-15T04:12:50;20.88;;;7.45;;
39776;SDS011;25453;48.162;14.510;2024-01-15T04:15:18;21.15;;;8.05;;
39776;SDS011;25453;48.162;14.510;2024-01-15T04:17:45;24.00;;;8.60;;
39776;SDS011;25453;48.162;14.510;2024-01-15T04:20:12;21.20;;;8.13;;
39776;SDS011;25453;48.162;14.510;2024-01-15T04:22:40;22.20;;;8.20;;
39776;SDS011;25453;48.162;14.510;2024-01-15T04:25:07;23.38;;;8.32;;
39776;SDS011;25453;48.162;14.510;2024-01-15T04:27:34;20.75;;;8.23;;
39776;SDS011;25453;48.162;14.510;2024-01-15T04:30:01;20.55;;;6.93;;
39776;SDS011;25453;48.162;14.510;2024-01-15T04:32:29;19.70;;;7.45;;
39776;SDS011;25453;48.162;14.510;2024-01-15T04:34:56;20.13;;;7.35;;
39776;SDS011;25453;48.162;14.510;2024-01-15T04:37:23;25.33;;;8.95;;
39776;SDS011;25453;48.162;14.510;2024-01-15T04:39:51;22.17;;;7.93;;
39776;SDS011;25453;48.162;14.510;2024-01-15T04:42:21;21.95;;;8.65;;
39776;SDS011;25453;48.162;14.510;2024-01-15T04:44:48;20.10;;;8.10;;
39776;SDS011;25453;48.162;14.510;2024-01-15T04:47:16;23.90;;;9.07;;
39776;SDS011;25453;48.162;14.510;2024-01-15T04:49:46;23.42;;;8.00;;
39776;SDS011;25453;48.162;14.510;2024-01-15T04:52:17;19.73;;;7.70;;
39776;SDS011;25453;48.162;14.510;2024-01-15T04:54:47;18.58;;;7.30;;
39776;SDS011;25453;48.162;14.510;2024-01-15T04:57:15;20.17;;;7.35;;
39776;SDS011;25453;48.162;14.510;2024-01-15T04:59:42;20.48;;;6.72;;
39776;SDS011;25453;48.162;14.510;2024-01-15T05:02:09;19.75;;;7.40;;
39776;SDS011;25453;48.162;14.510;2024-01-15T05:04:36;20.33;;;6.57;;
39776;SDS011;25453;48.162;14.510;2024-01-15T05:07:04;17.42;;;7.07;;
39776;SDS011;25453;48.162;14.510;2024-01-15T05:09:31;18.85;;;6.55;;
39776;SDS011;25453;48.162;14.510;2024-01-15T05:11:58;17.85;;;7.03;;
39776;SDS011;25453;48.162;14.510;2024-01-15T05:14:26;17.73;;;7.13;;
39776;SDS011;25453;48.162;14.510;2024-01-15T05:16:53;17.75;;;6.25;;
39776;SDS011;25453;48.162;14.510;2024-01-15T05:19:20;14.70;;;5.22;;
39776;SDS011;25453;48.162;14.510;2024-01-15T05:21:47;17.00;;;5.32;;
39776;SDS011;25453;48.162;14.510;2024-01-15T05:24:15;16.05;;;5.40;;
39776;SDS011;25453;48.162;14.510;2024-01-15T05:26:43;16.02;;;5.63;;
39776;SDS011;25453;48.162;14.510;2024-01-15T05:29:10;15.57;;;6.00;;
39776;SDS011;25453;48.162;14.510;2024-01-15T05:31:37;15.70;;;6.10;;
39776;SDS011;25453;48.162;14.510;2024-01-15T05:34:04;14.98;;;5.68;;
39776;SDS011;25453;48.162;14.510;2024-01-15T05:36:32;12.70;;;4.97;;
39776;SDS011;25453;48.162;14.510;2024-01-15T05:38:59;13.95;;;5.38;;
39776;SDS011;25453;48.162;14.510;2024-01-15T05:41:26;13.93;;;5.68;;
39776;SDS011;25453;48.162;14.510;2024-01-15T05:43:54;11.27;;;5.10;;
39776;SDS011;25453;48.162;14.510;2024-01-15T05:46:21;13.77;;;4.85;;
39776;SDS011;25453;48.162;14.510;2024-01-15T05:48:48;15.00;;;5.38;;
39776;SDS011;25453;48.162;14.510;2024-01-15T05:51:15;11.20;;;4.70;;
39776;SDS011;25453;48.162;14.510;2024-01-15T05:53:43;11.85;;;4.68;;
39776;SDS011;25453;48.162;14.510;2024-01-15T05:56:12;12.27;;;4.93;;
39776;SDS011;25453;48.162;14.510;2024-01-15T05:58:39;11.77;;;4.43;;
39776;SDS011;25453;48.162;14.510;2024-01-15T06:01:07;13.77;;;4.63;;
39776;SDS011;25453;48.162;14.510;2024-01-15T06:03:34;11.50;;;4.40;;
39776;SDS011;25453;48.162;14.510;2024-01-15T06:06:02;10.90;;;4.30;;
39776;SDS011;25453;48.162;14.510;2024-01-15T06:08:29;12.18;;;4.57;;
39776;SDS011;25453;48.162;14.510;2024-01-15T06:10:56;12.52;;;4.93;;
39776;SDS011;25453;48.162;14.510;2024-01-15T06:13:27;15.05;;;4.32;;
39776;SDS011;25453;48.162;14.510;2024-01-15T06:15:54;13.57;;;4.15;;
39776;SDS011;25453;48.162;14.510;2024-01-15T06:18:22;9.27;;;4.15;;
39776;SDS011;25453;48.162;14.510;2024-01-15T06:20:49;11.63;;;4.97;;
39776;SDS011;25453;48.162;14.510;2024-01-15T06:23:16;14.18;;;5.13;;
39776;SDS011;25453;48.162;14.510;2024-01-15T06:25:46;10.57;;;4.60;;
39776;SDS011;25453;48.162;14.510;2024-01-15T06:28:14;15.70;;;4.90;;
39776;SDS011;25453;48.162;14.510;2024-01-15T06:30:41;11.82;;;4.55;;
39776;SDS011;25453;48.162;14.510;2024-01-15T06:33:08;13.70;;;5.10;;
39776;SDS011;25453;48.162;14.510;2024-01-15T06:35:36;13.75;;;4.47;;
39776;SDS011;25453;48.162;14.510;2024-01-15T06:38:03;12.65;;;4.82;;
39776;SDS011;25453;48.162;14.510;2024-01-15T06:40:30;12.23;;;4.80;;
39776;SDS011;25453;48.162;14.510;2024-01-15T06:42:57;11.10;;;4.65;;
39776;SDS011;25453;48.162;14.510;2024-01-15T06:45:25;11.10;;;3.97;;
39776;SDS011;25453;48.162;14.510;2024-01-15T06:47:52;13.27;;;5.55;;
39776;SDS011;25453;48.162;14.510;2024-01-15T06:50:19;10.70;;;4.18;;
39776;SDS011;25453;48.162;14.510;2024-01-15T06:52:47;13.93;;;4.40;;
39776;SDS011;25453;48.162;14.510;2024-01-15T06:55:14;8.88;;;4.05;;
39776;SDS011;25453;48.162;14.510;2024-01-15T06:57:41;12.95;;;4.95;;
39776;SDS011;25453;48.162;14.510;2024-01-15T07:00:09;11.63;;;5.22;;
39776;SDS011;25453;48.162;14.510;2024-01-15T07:02:37;9.32;;;4.07;;
39776;SDS011;25453;48.162;14.510;2024-01-15T07:05:05;10.27;;;3.90;;
39776;SDS011;25453;48.162;14.510;2024-01-15T07:07:33;11.55;;;4.50;;
39776;SDS011;25453;48.162;14.510;2024-01-15T07:10:00;9.82;;;4.32;;
39776;SDS011;25453;48.162;14.510;2024-01-15T07:12:28;9.93;;;4.63;;
39776;SDS011;25453;48.162;14.510;2024-01-15T07:14:56;9.73;;;3.78;;
39776;SDS011;25453;48.162;14.510;2024-01-15T07:17:23;13.57;;;5.15;;
39776;SDS011;25453;48.162;14.510;2024-01-15T07:19:51;12.98;;;5.32;;
39776;SDS011;25453;48.162;14.510;2024-01-15T07:22:18;10.00;;;4.22;;
39776;SDS011;25453;48.162;14.510;2024-01-15T07:24:46;11.05;;;4.18;;
39776;SDS011;25453;48.162;14.510;2024-01-15T07:27:13;12.55;;;4.18;;
39776;SDS011;25453;48.162;14.510;2024-01-15T07:29:40;11.68;;;3.63;;
39776;SDS011;25453;48.162;14.510;2024-01-15T07:32:09;12.10;;;4.03;;
39776;SDS011;25453;48.162;14.510;2024-01-15T07:34:37;9.43;;;4.32;;
39776;SDS011;25453;48.162;14.510;2024-01-15T07:37:04;9.40;;;3.88;;
39776;SDS011;25453;48.162;14.510;2024-01-15T07:39:32;9.63;;;4.25;;
39776;SDS011;25453;48.162;14.510;2024-01-15T07:42:00;9.15;;;4.15;;
39776;SDS011;25453;48.162;14.510;2024-01-15T07:44:27;10.60;;;4.10;;
39776;SDS011;25453;48.162;14.510;2024-01-15T07:46:54;10.90;;;4.10;;
39776;SDS011;25453;48.162;14.510;2024-01-15T07:49:21;8.35;;;3.45;;
39776;SDS011;25453;48.162;14.510;2024-01-15T07:51:50;12.60;;;4.18;;
39776;SDS011;25453;48.162;14.510;2024-01-15T07:54:17;10.77;;;4.28;;
39776;SDS011;25453;48.162;14.510;2024-01-15T07:59:22;9.57;;;3.75;;
39776;SDS011;25453;48.162;14.510;2024-01-15T08:01:50;9.32;;;3.92;;
39776;SDS011;25453;48.162;14.510;2024-01-15T08:04:18;14.23;;;5.13;;
39776;SDS011;25453;48.162;14.510;2024-01-15T08:06:49;13.07;;;4.35;;
39776;SDS011;25453;48.162;14.510;2024-01-15T08:09:16;12.15;;;4.53;;
39776;SDS011;25453;48.162;14.510;2024-01-15T08:11:43;11.55;;;4.63;;
39776;SDS011;25453;48.162;14.510;2024-01-15T08:14:11;9.60;;;4.03;;
39776;SDS011;25453;48.162;14.510;2024-01-15T08:16:38;10.65;;;4.53;;
39776;SDS011;25453;48.162;14.510;2024-01-15T08:19:05;8.93;;;4.63;;
39776;SDS011;25453;48.162;14.510;2024-01-15T08:21:33;13.18;;;4.85;;
39776;SDS011;25453;48.162;14.510;2024-01-15T08:24:01;14.77;;;4.88;;
39776;SDS011;25453;48.162;14.510;2024-01-15T08:26:29;11.00;;;5.32;;
39776;SDS011;25453;48.162;14.510;2024-01-15T08:28:56;14.40;;;5.57;;
39776;SDS011;25453;48.162;14.510;2024-01-15T08:31:24;16.27;;;4.78;;
39776;SDS011;25453;48.162;14.510;2024-01-15T08:33:53;13.52;;;5.38;;
39776;SDS011;25453;48.162;14.510;2024-01-15T08:36:22;14.88;;;5.05;;
39776;SDS011;25453;48.162;14.510;2024-01-15T08:38:51;10.93;;;4.35;;
39776;SDS011;25453;48.162;14.510;2024-01-15T08:41:18;15.95;;;4.78;;
39776;SDS011;25453;48.162;14.510;2024-01-15T08:43:45;14.25;;;5.20;;
39776;SDS011;25453;48.162;14.510;2024-01-15T08:46:13;11.48;;;4.90;;
39776;SDS011;25453;48.162;14.510;2024-01-15T08:51:54;10.45;;;4.95;;
39776;SDS011;25453;48.162;14.510;2024-01-15T08:54:21;10.75;;;4.47;;
39776;SDS011;25453;48.162;14.510;2024-01-15T08:56:48;10.52;;;4.35;;
39776;SDS011;25453;48.162;14.510;2024-01-15T08:59:16;9.90;;;4.15;;
39776;SDS011;25453;48.162;14.510;2024-01-15T09:01:43;9.40;;;4.00;;
39776;SDS011;25453;48.162;14.510;2024-01-15T09:04:10;11.30;;;4.75;;
39776;SDS011;25453;48.162;14.510;2024-01-15T09:06:38;14.00;;;4.65;;
39776;SDS011;25453;48.162;14.510;2024-01-15T09:09:05;9.65;;;4.55;;
39776;SDS011;25453;48.162;14.510;2024-01-15T09:11:32;11.90;;;5.05;;
39776;SDS011;25453;48.162;14.510;2024-01-15T09:14:00;12.75;;;4.75;;
39776;SDS011;25453;48.162;14.510;2024-01-15T09:16:27;12.50;;;4.97;;
39776;SDS011;25453;48.162;14.510;2024-01-15T09:18:54;10.88;;;4.60;;
39776;SDS011;25453;48.162;14.510;2024-01-15T09:21:24;11.23;;;4.65;;
39776;SDS011;25453;48.162;14.510;2024-01-15T09:23:51;11.55;;;4.38;;
39776;SDS011;25453;48.162;14.510;2024-01-15T09:26:18;9.45;;;3.80;;
39776;SDS011;25453;48.162;14.510;2024-01-15T09:28:45;8.18;;;3.67;;
39776;SDS011;25453;48.162;14.510;2024-01-15T09:31:13;10.60;;;3.95;;
39776;SDS011;25453;48.162;14.510;2024-01-15T09:33:40;8.55;;;3.30;;
39776;SDS011;25453;48.162;14.510;2024-01-15T09:36:08;10.07;;;3.08;;
39776;SDS011;25453;48.162;14.510;2024-01-15T09:38:35;8.43;;;3.08;;
39776;SDS011;25453;48.162;14.510;2024-01-15T09:41:02;7.60;;;3.15;;
39776;SDS011;25453;48.162;14.510;2024-01-15T09:43:30;7.95;;;3.13;;
39776;SDS011;25453;48.162;14.510;2024-01-15T09:45:57;10.02;;;3.60;;
39776;SDS011;25453;48.162;14.510;2024-01-15T09:48:25;8.93;;;3.30;;
39776;SDS011;25453;48.162;14.510;2024-01-15T09:50:52;6.93;;;2.72;;
39776;SDS011;25453;48.162;14.510;2024-01-15T09:53:20;7.72;;;3.00;;
39776;SDS011;25453;48.162;14.510;2024-01-15T09:55:49;7.07;;;2.83;;
39776;SDS011;25453;48.162;14.510;2024-01-15T09:58:16;6.10;;;2.78;;
39776;SDS011;25453;48.162;14.510;2024-01-15T10:00:44;6.32;;;3.20;;
39776;SDS011;25453;48.162;14.510;2024-01-15T10:03:16;8.43;;;3.13;;
39776;SDS011;25453;48.162;14.510;2024-01-15T10:05:44;5.70;;;2.65;;
39776;SDS011;25453;48.162;14.510;2024-01-15T10:08:11;6.00;;;2.63;;
39776;SDS011;25453;48.162;14.510;2024-01-15T10:10:38;5.47;;;2.15;;
39776;SDS011;25453;48.162;14.510;2024-01-15T10:13:07;6.20;;;2.75;;
39776;SDS011;25453;48.162;14.510;2024-01-15T10:15:35;7.00;;;2.78;;
39776;SDS011;25453;48.162;14.510;2024-01-15T10:18:04;5.45;;;2.45;;
39776;SDS011;25453;48.162;14.510;2024-01-15T10:20:32;7.43;;;2.78;;
39776;SDS011;25453;48.162;14.510;2024-01-15T10:22:59;7.22;;;2.78;;
39776;SDS011;25453;48.162;14.510;2024-01-15T10:25:27;11.95;;;2.70;;
39776;SDS011;25453;48.162;14.510;2024-01-15T10:28:01;6.22;;;2.65;;
39776;SDS011;25453;48.162;14.510;2024-01-15T10:30:29;5.10;;;2.15;;
39776;SDS011;25453;48.162;14.510;2024-01-15T10:32:59;6.63;;;2.55;;
39776;SDS011;25453;48.162;14.510;2024-01-15T10:35:32;6.65;;;2.50;;
39776;SDS011;25453;48.162;14.510;2024-01-15T10:38:01;7.00;;;2.40;;
39776;SDS011;25453;48.162;14.510;2024-01-15T10:40:29;5.70;;;2.10;;
39776;SDS011;25453;48.162;14.510;2024-01-15T10:42:57;7.15;;;2.88;;
39776;SDS011;25453;48.162;14.510;2024-01-15T10:45:25;4.82;;;2.08;;
39776;SDS011;25453;48.162;14.510;2024-01-15T10:47:53;4.47;;;1.92;;
39776;SDS011;25453;48.162;14.510;2024-01-15T10:50:26;8.57;;;2.50;;
39776;SDS011;25453;48.162;14.510;2024-01-15T10:52:54;4.10;;;2.10;;
39776;SDS011;25453;48.162;14.510;2024-01-15T10:55:22;4.47;;;2.10;;
39776;SDS011;25453;48.162;14.510;2024-01-15T10:57:51;6.90;;;2.60;;
39776;SDS011;25453;48.162;14.510;2024-01-15T11:00:19;7.38;;;2.90;;
39776;SDS011;25453;48.162;14.510;2024-01-15T11:02:47;7.68;;;2.58;;
39776;SDS011;25453;48.162;14.510;2024-01-15T11:05:15;5.35;;;2.42;;
39776;SDS011;25453;48.162;14.510;2024-01-15T11:07:44;4.78;;;2.55;;
39776;SDS011;25453;48.162;14.510;2024-01-15T11:13:20;5.78;;;2.90;;
39776;SDS011;25453;48.162;14.510;2024-01-15T11:15:54;7.35;;;2.72;;
39776;SDS011;25453;48.162;14.510;2024-01-15T11:18:30;7.03;;;2.25;;
39776;SDS011;25453;48.162;14.510;2024-01-15T11:23:45;5.38;;;2.47;;
39776;SDS011;25453;48.162;14.510;2024-01-15T11:27:02;7.13;;;2.53;;
39776;SDS011;25453;48.162;14.510;2024-01-15T11:31:57;6.43;;;2.47;;
39776;SDS011;25453;48.162;14.510;2024-01-15T11:37:17;5.60;;;2.10;;
39776;SDS011;25453;48.162;14.510;2024-01-15T11:39:45;4.80;;;2.30;;
39776;SDS011;25453;48.162;14.510;2024-01-15T11:42:13;7.40;;;2.80;;
39776;SDS011;25453;48.162;14.510;2024-01-15T11:44:42;5.45;;;2.25;;
39776;SDS011;25453;48.162;14.510;2024-01-15T11:47:10;6.22;;;1.77;;
39776;SDS011;25453;48.162;14.510;2024-01-15T11:52:33;4.57;;;2.13;;
39776;SDS011;25453;48.162;14.510;2024-01-15T11:55:07;3.75;;;1.58;;
39776;SDS011;25453;48.162;14.510;2024-01-15T11:57:40;6.03;;;1.90;;
39776;SDS011;25453;48.162;14.510;2024-01-15T12:00:12;5.00;;;2.13;;
39776;SDS011;25453;48.162;14.510;2024-01-15T12:02:44;5.68;;;2.10;;
39776;SDS011;25453;48.162;14.510;2024-01-15T12:05:14;5.38;;;1.52;;
39776;SDS011;25453;48.162;14.510;2024-01-15T12:07:42;5.60;;;2.17;;
39776;SDS011;25453;48.162;14.510;2024-01-15T12:10:11;4.55;;;1.70;;
39776;SDS011;25453;48.162;14.510;2024-01-15T12:15:11;4.20;;;1.50;;
39776;SDS011;25453;48.162;14.510;2024-01-15T12:17:39;2.97;;;1.30;;
39776;SDS011;25453;48.162;14.510;2024-01-15T12:20:08;3.58;;;1.48;;
39776;SDS011;25453;48.162;14.510;2024-01-15T12:22:36;5.97;;;1.63;;
39776;SDS011;25453;48.162;14.510;2024-01-15T12:25:25;4.65;;;1.80;;
39776;SDS011;25453;48.162;14.510;2024-01-15T12:27:55;3.25;;;1.25;;
39776;SDS011;25453;48.162;14.510;2024-01-15T12:30:23;4.00;;;1.30;;
39776;SDS011;25453;48.162;14.510;2024-01-15T12:32:50;4.95;;;1.55;;
39776;SDS011;25453;48.162;14.510;2024-01-15T12:35:17;3.60;;;1.52;;
39776;SDS011;25453;48.162;14.510;2024-01-15T12:37:45;3.45;;;1.63;;
39776;SDS011;25453;48.162;14.510;2024-01-15T12:40:18;3.85;;;1.30;;
39776;SDS011;25453;48.162;14.510;2024-01-15T12:42:46;2.85;;;1.20;;
39776;SDS011;25453;48.162;14.510;2024-01-15T12:45:13;4.85;;;1.65;;
39776;SDS011;25453;48.162;14.510;2024-01-15T12:47:41;2.72;;;1.20;;
39776;SDS011;25453;48.162;14.510;2024-01-15T12:50:09;4.85;;;1.70;;
39776;SDS011;25453;48.162;14.510;2024-01-15T12:52:45;3.75;;;1.15;;
39776;SDS011;25453;48.162;14.510;2024-01-15T12:55:13;3.17;;;1.23;;
39776;SDS011;25453;48.162;14.510;2024-01-15T12:57:41;2.85;;;1.30;;
39776;SDS011;25453;48.162;14.510;2024-01-15T13:00:09;3.95;;;1.40;;
39776;SDS011;25453;48.162;14.510;2024-01-15T13:02:43;5.72;;;1.70;;
39776;SDS011;25453;48.162;14.510;2024-01-15T13:05:11;3.53;;;1.35;;
39776;SDS011;25453;48.162;14.510;2024-01-15T13:07:41;5.65;;;1.50;;
39776;SDS011;25453;48.162;14.510;2024-01-15T13:10:10;3.10;;;1.42;;
39776;SDS011;25453;48.162;14.510;2024-01-15T13:12:38;3.30;;;1.50;;
39776;SDS011;25453;48.162;14.510;2024-01-15T13:15:06;2.22;;;0.98;;
39776;SDS011;25453;48.162;14.510;2024-01-15T13:17:40;2.33;;;1.05;;
39776;SDS011;25453;48.162;14.510;2024-01-15T13:20:08;3.67;;;1.17;;
39776;SDS011;25453;48.162;14.510;2024-01-15T13:22:40;2.83;;;1.23;;
39776;SDS011;25453;48.162;14.510;2024-01-15T13:25:18;3.45;;;1.45;;
39776;SDS011;25453;48.162;14.510;2024-01-15T13:27:54;3.55;;;1.30;;
39776;SDS011;25453;48.162;14.510;2024-01-15T13:30:23;2.30;;;1.00;;
39776;SDS011;25453;48.162;14.510;2024-01-15T13:32:51;2.63;;;1.05;;
39776;SDS011;25453;48.162;14.510;2024-01-15T13:35:21;2.85;;;1.38;;
39776;SDS011;25453;48.162;14.510;2024-01-15T13:37:53;3.58;;;1.10;;
39776;SDS011;25453;48.162;14.510;2024-01-15T13:40:24;5.05;;;1.20;;
39776;SDS011;25453;48.162;14.510;2024-01-15T13:42:54;3.05;;;1.05;;
39776;SDS011;25453;48.162;14.510;2024-01-15T13:45:23;3.75;;;1.33;;
39776;SDS011;25453;48.162;14.510;2024-01-15T13:47:50;2.28;;;0.82;;
39776;SDS011;25453;48.162;14.510;2024-01-15T13:50:18;3.33;;;1.08;;
39776;SDS011;25453;48.162;14.510;2024-01-15T13:52:51;1.63;;;0.57;;
39776;SDS011;25453;48.162;14.510;2024-01-15T13:55:18;2.88;;;0.98;;
39776;SDS011;25453;48.162;14.510;2024-01-15T13:57:47;1.45;;;0.57;;
39776;SDS011;25453;48.162;14.510;2024-01-15T14:00:16;1.67;;;0.82;;
39776;SDS011;25453;48.162;14.510;2024-01-15T14:02:47;3.38;;;1.38;;
39776;SDS011;25453;48.162;14.510;2024-01-15T14:05:14;2.80;;;1.10;;
39776;SDS011;25453;48.162;14.510;2024-01-15T14:07:42;4.95;;;1.40;;
39776;SDS011;25453;48.162;14.510;2024-01-15T14:10:10;3.90;;;1.33;;
39776;SDS011;25453;48.162;14.510;2024-01-15T14:12:37;3.17;;;1.27;;
39776;SDS011;25453;48.162;14.510;2024-01-15T14:15:04;3.22;;;1.15;;
39776;SDS011;25453;48.162;14.510;2024-01-15T14:17:32;1.98;;;1.00;;
39776;SDS011;25453;48.162;14.510;2024-01-15T14:20:00;2.72;;;0.88;;
39776;SDS011;25453;48.162;14.510;2024-01-15T14:22:27;2.67;;;1.15;;
39776;SDS011;25453;48.162;14.510;2024-01-15T14:24:55;2.33;;;1.00;;
39776;SDS011;25453;48.162;14.510;2024-01-15T14:27:22;1.85;;;0.80;;
39776;SDS011;25453;48.162;14.510;2024-01-15T14:29:50;2.63;;;0.98;;
39776;SDS011;25453;48.162;14.510;2024-01-15T14:32:17;1.52;;;0.80;;
39776;SDS011;25453;48.162;14.510;2024-01-15T14:34:44;3.47;;;0.70;;
39776;SDS011;25453;48.162;14.510;2024-01-15T14:37:12;5.47;;;1.40;;
39776;SDS011;25453;48.162;14.510;2024-01-15T14:39:39;2.25;;;1.08;;
39776;SDS011;25453;48.162;14.510;2024-01-15T14:42:06;4.50;;;1.65;;
39776;SDS011;25453;48.162;14.510;2024-01-15T14:44:33;2.53;;;1.20;;
39776;SDS011;25453;48.162;14.510;2024-01-15T14:47:01;2.80;;;1.23;;
39776;SDS011;25453;48.162;14.510;2024-01-15T14:49:29;3.72;;;1.00;;
39776;SDS011;25453;48.162;14.510;2024-01-15T14:51:58;2.60;;;1.23;;
39776;SDS011;25453;48.162;14.510;2024-01-15T14:54:25;2.85;;;0.98;;